createdAt,value
2022-08-22T16:21:41.013Z,3.40
2022-08-22T16:24:07.687Z,3.30
2022-08-22T16:28:57.430Z,3.40
2022-08-22T16:31:24.673Z,1.90
2022-08-22T16:33:51.572Z,2.60
2022-08-22T16:37:49.948Z,2.40
2022-08-22T16:40:22.694Z,5.90
2022-08-22T16:43:12.081Z,6.20
2022-08-22T16:45:45.515Z,5.10
2022-08-22T16:48:34.551Z,3.97
2022-08-22T16:51:21.267Z,3.60
2022-08-22T16:54:03.818Z,2.47
2022-08-22T16:56:44.621Z,3.27
2022-08-22T16:59:33.260Z,2.90
2022-08-22T17:02:34.249Z,2.47
2022-08-22T17:05:07.479Z,2.73
2022-08-22T17:08:06.488Z,2.77
2022-08-22T17:10:42.505Z,2.30
2022-08-22T17:13:37.017Z,2.10
2022-08-22T17:16:41.755Z,4.00
2022-08-22T17:19:41.108Z,4.13
2022-08-22T17:22:19.826Z,3.10
2022-08-22T17:25:00.593Z,3.80
2022-08-22T17:27:35.010Z,3.07
2022-08-22T17:30:28.942Z,3.10
2022-08-22T17:33:14.916Z,2.57
2022-08-22T17:35:55.895Z,2.47
2022-08-22T17:38:41.168Z,3.00
2022-08-22T17:41:28.888Z,3.20
2022-08-22T17:44:18.708Z,2.50
2022-08-22T17:47:06.328Z,2.80
2022-08-22T17:49:53.911Z,2.93
2022-08-22T17:53:18.700Z,2.50
2022-08-22T17:56:13.427Z,1.93
2022-08-22T17:59:03.012Z,2.23
2022-08-22T18:01:49.597Z,2.60
2022-08-22T18:04:29.532Z,2.57
2022-08-22T18:07:05.423Z,3.00
2022-08-22T18:09:39.271Z,3.13
2022-08-22T18:12:19.223Z,3.37
2022-08-22T18:14:49.015Z,2.37
2022-08-22T18:17:27.588Z,3.10
2022-08-22T18:20:09.442Z,3.30
2022-08-22T18:22:39.163Z,2.53
2022-08-22T18:25:08.655Z,2.80
2022-08-22T18:28:05.263Z,3.50
2022-08-22T18:30:54.708Z,3.03
2022-08-22T18:33:32.823Z,3.87
2022-08-22T18:36:10.627Z,3.23
2022-08-22T18:38:55.558Z,3.50
2022-08-22T18:41:31.388Z,3.33
2022-08-22T18:43:59.410Z,3.17
2022-08-22T18:46:38.304Z,3.20
2022-08-22T18:49:19.643Z,3.83
2022-08-22T18:52:12.779Z,2.97
2022-08-22T18:55:03.815Z,3.80
2022-08-22T18:58:08.103Z,3.03
2022-08-22T19:01:02.754Z,3.53
2022-08-22T19:03:53.933Z,3.83
2022-08-22T19:07:00.438Z,4.20
2022-08-22T19:09:51.781Z,3.60
2022-08-22T19:12:52.489Z,3.73
2022-08-22T19:15:48.369Z,3.20
2022-08-22T19:18:30.746Z,4.27
2022-08-22T19:21:37.674Z,3.53
2022-08-22T19:24:12.128Z,3.70
2022-08-22T19:26:44.763Z,3.23
2022-08-22T19:29:16.098Z,3.60
2022-08-22T19:31:48.892Z,4.40
2022-08-22T19:34:25.497Z,3.30
2022-08-22T19:37:33.751Z,4.13
2022-08-22T19:40:05.814Z,3.70
2022-08-22T19:42:35.767Z,3.60
2022-08-22T19:45:08.370Z,3.47
2022-08-22T19:47:42.103Z,3.50
2022-08-22T19:50:18.240Z,3.40
2022-08-22T19:52:51.015Z,4.10
2022-08-22T19:55:38.649Z,3.10
2022-08-22T19:58:38.100Z,3.90
2022-08-22T20:01:40.183Z,3.40
2022-08-22T20:04:33.151Z,4.13
2022-08-22T20:07:26.077Z,4.07
2022-08-22T20:10:08.613Z,4.10
2022-08-22T20:12:49.461Z,3.93
2022-08-22T20:15:24.016Z,4.00
2022-08-22T20:20:55.671Z,4.30
2022-08-22T20:23:30.486Z,4.40
2022-08-22T20:25:58.029Z,4.13
2022-08-22T20:28:40.946Z,3.87
2022-08-22T20:31:19.803Z,3.73
2022-08-22T20:33:51.267Z,4.60
2022-08-22T20:36:28.535Z,3.93
2022-08-22T20:39:08.057Z,3.70
2022-08-22T20:41:39.075Z,3.83
2022-08-22T20:44:18.553Z,3.67
2022-08-22T20:46:53.471Z,3.80
2022-08-22T20:49:26.027Z,4.53
2022-08-22T20:52:04.945Z,3.47
2022-08-22T20:54:35.704Z,3.80
2022-08-22T20:57:13.996Z,4.53
2022-08-22T20:59:44.995Z,4.40
2022-08-22T21:02:24.660Z,3.60
2022-08-22T21:05:08.560Z,4.27
2022-08-22T21:07:37.046Z,4.33
2022-08-22T21:10:44.599Z,3.90
2022-08-22T21:13:22.195Z,4.17
2022-08-22T21:15:58.307Z,4.23
2022-08-22T21:18:40.675Z,4.13
2022-08-22T21:21:17.182Z,5.10
2022-08-22T21:24:06.743Z,4.50
2022-08-22T21:26:36.506Z,4.13
2022-08-22T21:29:08.479Z,3.90
2022-08-22T21:31:48.812Z,4.20
2022-08-22T21:34:32.174Z,4.33
2022-08-22T21:37:02.394Z,3.73
2022-08-22T21:39:36.154Z,4.93
2022-08-22T21:42:02.844Z,4.50
2022-08-22T21:44:35.457Z,4.27
2022-08-22T21:47:30.156Z,4.33
2022-08-22T21:50:13.090Z,4.00
2022-08-22T21:52:56.076Z,4.90
2022-08-22T21:55:29.837Z,5.30
2022-08-22T21:58:07.866Z,4.67
2022-08-22T22:00:59.112Z,4.63
2022-08-22T22:03:38.310Z,5.30
2022-08-22T22:06:06.335Z,4.47
2022-08-22T22:08:33.902Z,5.20
2022-08-22T22:11:04.709Z,4.53
2022-08-22T22:13:35.614Z,4.83
2022-08-22T22:16:03.022Z,4.70
2022-08-22T22:18:34.554Z,4.23
2022-08-22T22:21:01.514Z,3.80
2022-08-22T22:23:28.879Z,4.40
2022-08-22T22:25:57.782Z,4.40
2022-08-22T22:28:36.447Z,4.10
2022-08-22T22:31:03.650Z,4.60
2022-08-22T22:33:33.669Z,3.70
2022-08-22T22:36:11.309Z,4.20
2022-08-22T22:38:39.972Z,4.17
2022-08-22T22:41:07.109Z,3.50
2022-08-22T22:43:34.089Z,4.43
2022-08-22T22:46:00.809Z,4.33
2022-08-22T22:48:27.667Z,4.13
2022-08-22T22:50:54.966Z,3.80
2022-08-22T22:53:33.779Z,4.27
2022-08-22T22:56:09.288Z,3.83
2022-08-22T22:58:37.260Z,3.27
2022-08-22T23:01:08.647Z,3.47
2022-08-22T23:03:35.436Z,3.50
2022-08-22T23:06:02.171Z,3.80
2022-08-22T23:08:28.958Z,3.63
2022-08-22T23:10:55.950Z,3.80
2022-08-22T23:13:22.777Z,3.30
2022-08-22T23:15:49.514Z,3.37
2022-08-22T23:18:16.367Z,3.10
2022-08-22T23:20:43.099Z,3.20
2022-08-22T23:23:09.798Z,3.37
2022-08-22T23:25:36.566Z,3.70
2022-08-22T23:28:03.762Z,3.23
2022-08-22T23:30:31.296Z,3.00
2022-08-22T23:32:58.088Z,3.07
2022-08-22T23:35:25.052Z,3.40
2022-08-22T23:37:52.678Z,3.00
2022-08-22T23:40:19.471Z,2.90
2022-08-22T23:42:46.221Z,3.00
2022-08-22T23:45:13.042Z,3.00
2022-08-22T23:47:39.943Z,2.97
2022-08-22T23:50:07.118Z,2.70
2022-08-22T23:52:34.291Z,3.00
2022-08-22T23:55:00.984Z,2.53
2022-08-22T23:57:29.509Z,4.10
2022-08-22T23:59:57.617Z,3.30
